createdAt,value
2022-08-11T00:00:09.714Z,2.30
2022-08-11T00:02:52.834Z,2.70
2022-08-11T00:05:22.277Z,2.83
2022-08-11T00:07:58.261Z,2.53
2022-08-11T00:10:29.587Z,3.00
2022-08-11T00:13:05.063Z,2.80
2022-08-11T00:15:48.661Z,2.70
2022-08-11T00:18:18.888Z,2.40
2022-08-11T00:20:46.715Z,2.80
2022-08-11T00:23:18.465Z,2.67
2022-08-11T00:25:50.908Z,3.00
2022-08-11T00:28:31.347Z,2.80
2022-08-11T00:31:08.822Z,2.60
2022-08-11T00:33:46.204Z,2.40
2022-08-11T00:36:22.061Z,2.60
2022-08-11T00:38:55.506Z,2.50
2022-08-11T00:42:08.613Z,2.70
2022-08-11T00:45:19.366Z,2.43
2022-08-11T00:48:19.920Z,2.50
2022-08-11T00:52:04.953Z,2.77
2022-08-11T00:55:20.153Z,2.63
2022-08-11T00:58:02.762Z,2.57
2022-08-11T01:01:03.520Z,2.67
2022-08-11T01:04:26.338Z,2.70
2022-08-11T01:08:01.661Z,2.63
2022-08-11T01:10:45.923Z,2.40
2022-08-11T01:13:53.119Z,2.80
2022-08-11T01:16:48.066Z,2.70
2022-08-11T01:20:39.673Z,2.77
2022-08-11T01:23:26.264Z,2.67
2022-08-11T01:26:31.132Z,2.57
2022-08-11T01:28:58.233Z,2.80
2022-08-11T01:32:03.953Z,2.70
2022-08-11T01:35:20.616Z,2.50
2022-08-11T01:38:29.552Z,3.00
2022-08-11T01:41:25.555Z,3.13
2022-08-11T01:44:38.896Z,2.57
2022-08-11T01:47:54.496Z,2.87
2022-08-11T01:50:56.039Z,2.80
2022-08-11T01:53:43.600Z,2.93
2022-08-11T01:57:04.610Z,3.00
2022-08-11T01:59:51.448Z,2.80
2022-08-11T02:02:54.186Z,3.10
2022-08-11T02:05:42.467Z,2.73
2022-08-11T02:08:50.400Z,2.63
2022-08-11T02:11:38.189Z,2.90
2022-08-11T02:14:33.746Z,2.70
2022-08-11T02:17:19.276Z,3.10
2022-08-11T02:20:19.690Z,3.17
2022-08-11T02:24:03.767Z,3.00
2022-08-11T02:26:47.483Z,3.10
2022-08-11T02:29:35.374Z,3.10
2022-08-11T02:32:50.615Z,2.90
2022-08-11T02:35:42.967Z,2.97
2022-08-11T02:38:55.745Z,3.00
2022-08-11T02:42:32.648Z,3.23
2022-08-11T02:45:12.250Z,2.90
2022-08-11T02:48:16.713Z,2.73
2022-08-11T02:51:21.843Z,3.10
2022-08-11T02:54:32.795Z,3.43
2022-08-11T02:57:21.326Z,3.20
2022-08-11T03:00:13.014Z,3.50
2022-08-11T03:02:49.874Z,3.50
2022-08-11T03:05:31.728Z,3.50
2022-08-11T03:12:58.465Z,3.07
2022-08-11T03:16:19.161Z,3.40
2022-08-11T03:19:07.362Z,3.13
2022-08-11T03:22:01.482Z,2.70
2022-08-11T03:25:17.218Z,3.17
2022-08-11T03:28:19.291Z,2.93
2022-08-11T03:31:13.962Z,3.07
2022-08-11T03:34:07.188Z,3.27
2022-08-11T03:37:37.340Z,3.33
2022-08-11T03:41:02.424Z,3.00
2022-08-11T03:43:58.339Z,3.07
2022-08-11T03:46:45.380Z,3.47
2022-08-11T03:49:25.623Z,3.17
2022-08-11T03:52:52.655Z,3.03
2022-08-11T03:55:39.673Z,3.40
2022-08-11T03:58:42.040Z,3.23
2022-08-11T04:01:38.063Z,3.13
2022-08-11T04:04:20.050Z,3.00
2022-08-11T04:07:27.099Z,3.37
2022-08-11T04:10:51.776Z,3.10
2022-08-11T04:14:33.323Z,3.13
2022-08-11T04:17:09.195Z,3.40
2022-08-11T04:20:10.220Z,3.47
2022-08-11T04:22:55.276Z,3.53
2022-08-11T04:26:20.422Z,3.50
2022-08-11T04:30:04.015Z,3.67
2022-08-11T04:33:09.761Z,3.67
2022-08-11T04:36:10.073Z,3.57
2022-08-11T04:39:20.270Z,3.60
2022-08-11T04:42:49.619Z,3.43
2022-08-11T04:46:03.128Z,3.47
2022-08-11T04:49:36.350Z,3.53
2022-08-11T04:53:18.583Z,3.50
2022-08-11T04:56:27.871Z,3.80
2022-08-11T04:59:42.926Z,3.30
2022-08-11T05:02:37.891Z,3.60
2022-08-11T05:06:01.968Z,3.77
2022-08-11T05:09:00.450Z,3.47
2022-08-11T05:11:57.876Z,3.53
2022-08-11T05:15:15.304Z,4.00
2022-08-11T05:18:25.542Z,3.60
2022-08-11T05:21:34.662Z,3.63
2022-08-11T05:24:49.032Z,3.70
2022-08-11T05:27:38.384Z,3.40
2022-08-11T05:30:26.781Z,4.00
2022-08-11T05:33:24.271Z,4.07
2022-08-11T05:36:30.217Z,4.43
2022-08-11T05:39:33.833Z,3.83
2022-08-11T05:42:30.136Z,3.97
2022-08-11T05:46:02.742Z,4.10
2022-08-11T05:49:12.353Z,4.30
2022-08-11T05:52:05.434Z,4.20
2022-08-11T05:55:06.086Z,4.30
2022-08-11T05:57:50.612Z,3.87
2022-08-11T06:00:20.269Z,4.23
2022-08-11T06:02:57.835Z,4.10
2022-08-11T06:05:32.775Z,4.17
2022-08-11T06:08:10.063Z,3.87
2022-08-11T06:10:47.465Z,4.50
2022-08-11T06:13:18.807Z,4.07
2022-08-11T06:15:54.062Z,4.20
2022-08-11T06:18:22.715Z,4.50
2022-08-11T06:20:56.908Z,4.40
2022-08-11T06:23:33.734Z,4.67
2022-08-11T06:26:15.217Z,4.10
2022-08-11T06:28:46.135Z,4.10
2022-08-11T06:31:24.434Z,3.93
2022-08-11T06:33:51.502Z,4.20
2022-08-11T06:36:34.566Z,4.40
2022-08-11T06:39:29.357Z,5.03
2022-08-11T06:42:12.645Z,3.90
2022-08-11T06:45:05.349Z,3.53
2022-08-11T06:47:33.711Z,4.00
2022-08-11T06:50:21.181Z,4.93
2022-08-11T06:52:49.101Z,5.00
2022-08-11T06:55:55.550Z,4.33
2022-08-11T06:58:57.156Z,3.77
2022-08-11T07:01:46.258Z,4.50
2022-08-11T07:05:10.823Z,3.80
2022-08-11T07:08:33.642Z,3.93
2022-08-11T07:11:45.283Z,3.60
2022-08-11T07:14:41.886Z,3.67
2022-08-11T07:17:17.485Z,3.47
2022-08-11T07:20:14.149Z,4.30
2022-08-11T07:23:04.887Z,3.50
2022-08-11T07:25:55.422Z,3.30
2022-08-11T07:28:48.877Z,3.57
2022-08-11T07:31:24.703Z,3.40
2022-08-11T07:34:07.502Z,3.13
2022-08-11T07:36:49.570Z,3.57
2022-08-11T07:39:28.786Z,3.27
2022-08-11T07:41:59.691Z,3.53
2022-08-11T07:44:35.007Z,3.70
2022-08-11T07:47:22.098Z,3.53
2022-08-11T07:50:11.708Z,3.50
2022-08-11T07:52:40.833Z,4.00
2022-08-11T07:55:17.800Z,3.50
2022-08-11T07:58:16.132Z,3.70
2022-08-11T08:01:22.229Z,3.23
2022-08-11T08:04:09.956Z,3.43
2022-08-11T08:06:57.800Z,3.60
2022-08-11T08:09:45.089Z,3.60
2022-08-11T08:12:33.396Z,3.60
2022-08-11T08:15:26.333Z,3.63
2022-08-11T08:18:09.995Z,3.50
2022-08-11T08:20:52.248Z,3.33
2022-08-11T08:23:34.978Z,3.60
2022-08-11T08:26:27.634Z,3.63
2022-08-11T08:29:18.556Z,3.50
2022-08-11T08:31:48.829Z,3.80
2022-08-11T08:34:19.048Z,3.50
2022-08-11T08:36:51.730Z,3.30
2022-08-11T08:39:23.487Z,3.90
2022-08-11T08:41:57.336Z,4.13
2022-08-11T08:44:38.417Z,3.33
2022-08-11T08:47:12.775Z,3.13
2022-08-11T08:49:49.496Z,3.77
2022-08-11T08:52:34.541Z,3.60
2022-08-11T08:55:06.737Z,3.97
2022-08-11T08:57:39.522Z,3.73
2022-08-11T09:00:12.889Z,3.40
2022-08-11T09:02:46.185Z,3.67
2022-08-11T09:05:18.508Z,3.60
2022-08-11T09:07:51.338Z,3.50
2022-08-11T09:10:21.070Z,3.33
2022-08-11T09:12:50.226Z,3.27
2022-08-11T09:15:19.918Z,3.77
2022-08-11T09:17:52.641Z,3.80
2022-08-11T09:20:26.309Z,3.67
2022-08-11T09:26:30.549Z,3.28
2022-08-11T09:28:59.727Z,3.30
2022-08-11T09:31:38.691Z,3.72
2022-08-11T09:34:09.768Z,3.10
2022-08-11T09:36:58.425Z,3.33
2022-08-11T09:39:46.806Z,3.47
2022-08-11T09:42:16.305Z,3.13
2022-08-11T09:44:50.810Z,3.10
2022-08-11T09:47:26.569Z,2.97
2022-08-11T09:50:01.177Z,3.10
2022-08-11T09:52:36.089Z,3.13
2022-08-11T09:55:11.377Z,3.40
2022-08-11T09:58:06.236Z,3.63
2022-08-11T10:00:42.894Z,2.95
2022-08-11T10:03:44.504Z,3.03
2022-08-11T10:06:33.022Z,2.90
2022-08-11T10:09:06.552Z,2.90
2022-08-11T10:11:37.719Z,2.83
2022-08-11T10:14:31.916Z,2.70
2022-08-11T10:17:09.417Z,2.88
2022-08-11T10:19:38.681Z,3.08
2022-08-11T10:22:27.695Z,3.00
2022-08-11T10:25:19.890Z,2.60
2022-08-11T10:28:16.625Z,2.75
2022-08-11T10:31:06.844Z,2.67
2022-08-11T10:34:00.290Z,2.55
2022-08-11T10:36:30.953Z,2.70
2022-08-11T10:39:00.509Z,2.67
2022-08-11T10:42:06.124Z,3.08
2022-08-11T10:44:46.058Z,2.67
2022-08-11T10:47:34.459Z,3.03
2022-08-11T10:50:26.476Z,2.80
2022-08-11T10:53:14.733Z,2.65
2022-08-11T10:58:48.025Z,2.47
2022-08-11T11:01:24.655Z,2.40
2022-08-11T11:03:59.141Z,2.60
2022-08-11T11:06:33.634Z,2.38
2022-08-11T11:09:14.900Z,2.60
2022-08-11T11:12:15.479Z,2.70
2022-08-11T11:15:03.164Z,2.50
2022-08-11T11:17:56.269Z,2.60
2022-08-11T11:20:47.393Z,2.88
2022-08-11T11:23:26.002Z,2.65
2022-08-11T11:26:27.026Z,2.50
2022-08-11T11:29:39.804Z,2.72
2022-08-11T11:32:31.078Z,3.10
2022-08-11T11:35:24.016Z,3.08
2022-08-11T11:38:03.839Z,2.70
2022-08-11T11:40:33.686Z,2.60
2022-08-11T11:43:02.323Z,2.80
2022-08-11T11:45:30.194Z,2.50
2022-08-11T11:48:01.114Z,2.70
2022-08-11T11:50:37.688Z,2.42
2022-08-11T11:53:07.933Z,2.60
2022-08-11T11:55:36.543Z,2.90
2022-08-11T11:58:23.633Z,2.75
2022-08-11T12:01:12.128Z,2.58
2022-08-11T12:03:41.036Z,2.45
2022-08-11T12:06:12.253Z,2.75
2022-08-11T12:08:40.174Z,2.70
2022-08-11T12:11:30.800Z,2.80
2022-08-11T12:14:03.602Z,2.90
2022-08-11T12:16:41.939Z,2.63
2022-08-11T12:19:24.875Z,2.60
2022-08-11T12:22:14.686Z,3.38
2022-08-11T12:25:01.197Z,2.53
2022-08-11T12:27:31.368Z,2.38
2022-08-11T12:30:08.657Z,3.00
2022-08-11T12:32:38.945Z,2.92
2022-08-11T12:35:08.173Z,2.70
2022-08-11T12:37:40.949Z,2.75
2022-08-11T12:40:42.692Z,2.92
2022-08-11T12:43:41.689Z,2.97
2022-08-11T12:46:19.846Z,2.70
2022-08-11T12:49:10.379Z,3.20
2022-08-11T12:52:13.187Z,2.80
2022-08-11T12:55:13.811Z,2.78
2022-08-11T12:58:06.983Z,2.70
2022-08-11T13:00:53.159Z,2.92
2022-08-11T13:03:41.336Z,3.15
2022-08-11T13:06:09.718Z,2.88
2022-08-11T13:08:40.299Z,3.35
2022-08-11T13:11:54.507Z,2.97
2022-08-11T13:14:17.090Z,2.92
2022-08-11T13:17:04.783Z,3.25
2022-08-11T13:19:32.753Z,3.30
2022-08-11T13:22:01.182Z,3.47
2022-08-11T13:24:29.499Z,3.10
2022-08-11T13:26:58.495Z,3.05
2022-08-11T13:29:29.492Z,3.15
2022-08-11T13:32:00.107Z,3.35
2022-08-11T13:34:31.359Z,3.28
2022-08-11T13:37:05.306Z,3.03
2022-08-11T13:39:36.045Z,2.90
2022-08-11T13:42:05.411Z,3.03
2022-08-11T13:44:39.075Z,2.83
2022-08-11T13:47:12.055Z,3.00
2022-08-11T13:49:41.683Z,3.28
2022-08-11T13:52:16.717Z,3.28
2022-08-11T13:54:48.156Z,2.65
2022-08-11T13:58:06.710Z,2.95
2022-08-11T14:00:27.737Z,3.20
2022-08-11T14:02:58.153Z,3.38
2022-08-11T14:05:38.010Z,3.13
2022-08-11T14:08:32.453Z,3.17
2022-08-11T14:12:22.844Z,3.10
2022-08-11T14:14:25.220Z,3.20
2022-08-11T14:16:57.420Z,3.38
2022-08-11T14:19:27.286Z,3.05
2022-08-11T14:22:08.403Z,3.10
2022-08-11T14:24:49.689Z,3.05
2022-08-11T14:28:15.410Z,2.80
2022-08-11T14:30:27.352Z,2.83
2022-08-11T14:32:56.827Z,3.47
2022-08-11T14:35:28.932Z,3.00
2022-08-11T14:37:59.083Z,2.88
2022-08-11T14:40:45.734Z,2.67
2022-08-11T14:44:13.036Z,2.90
2022-08-11T14:46:37.837Z,2.72
2022-08-11T14:49:05.615Z,2.95
2022-08-11T14:51:34.643Z,2.75
2022-08-11T14:54:20.845Z,3.00
2022-08-11T14:56:48.780Z,3.28
2022-08-11T14:59:16.454Z,2.97
2022-08-11T15:02:03.177Z,2.85
2022-08-11T15:04:36.697Z,3.30
2022-08-11T15:07:05.442Z,2.90
2022-08-11T15:10:11.789Z,3.35
2022-08-11T15:12:35.147Z,3.10
2022-08-11T15:15:26.344Z,3.17
2022-08-11T15:17:58.482Z,3.00
2022-08-11T15:20:47.248Z,3.00
2022-08-11T15:23:33.534Z,3.00
2022-08-11T15:26:41.001Z,3.20
2022-08-11T15:29:28.556Z,3.30
2022-08-11T15:32:15.280Z,2.80
2022-08-11T15:35:03.653Z,2.75
2022-08-11T15:37:35.589Z,3.08
2022-08-11T15:40:47.752Z,3.00
2022-08-11T15:43:41.733Z,3.10
2022-08-11T15:46:18.400Z,2.92
2022-08-11T15:48:59.823Z,3.00
2022-08-11T15:51:55.374Z,2.90
2022-08-11T15:54:31.192Z,2.97
2022-08-11T15:57:05.609Z,3.30
2022-08-11T15:59:56.487Z,3.10
2022-08-11T16:02:45.603Z,2.97
2022-08-11T16:05:45.234Z,3.10
2022-08-11T16:08:05.623Z,2.88
2022-08-11T16:10:35.818Z,3.00
2022-08-11T16:13:06.821Z,2.95
2022-08-11T16:15:58.368Z,3.53
2022-08-11T16:18:40.817Z,3.20
2022-08-11T16:21:36.185Z,2.80
2022-08-11T16:27:03.825Z,2.80
2022-08-11T16:27:09.080Z,2.85
2022-08-11T16:29:48.016Z,3.10
2022-08-11T16:32:22.298Z,3.30
2022-08-11T16:35:37.284Z,3.40
2022-08-11T16:38:25.207Z,3.30
2022-08-11T16:40:56.240Z,3.13
2022-08-11T16:43:47.072Z,3.50
2022-08-11T16:46:39.891Z,3.00
2022-08-11T16:49:15.769Z,3.20
2022-08-11T16:51:43.466Z,3.08
2022-08-11T16:54:10.973Z,3.60
2022-08-11T16:56:49.305Z,2.95
2022-08-11T16:59:24.003Z,2.92
2022-08-11T17:01:59.380Z,3.00
2022-08-11T17:05:12.416Z,3.13
2022-08-11T17:08:02.300Z,2.85
2022-08-11T17:11:01.504Z,2.95
2022-08-11T17:13:40.387Z,3.05
2022-08-11T17:16:13.735Z,2.72
2022-08-11T17:19:09.046Z,2.90
2022-08-11T17:22:14.124Z,3.15
2022-08-11T17:24:45.840Z,2.80
2022-08-11T17:27:17.652Z,2.72
2022-08-11T17:29:57.185Z,2.72
2022-08-11T17:32:56.329Z,2.72
2022-08-11T17:35:38.925Z,2.80
2022-08-11T17:38:22.891Z,3.08
2022-08-11T17:41:18.553Z,2.97
2022-08-11T17:44:11.694Z,2.70
2022-08-11T17:47:05.129Z,3.10
2022-08-11T17:49:39.377Z,2.80
2022-08-11T17:52:26.144Z,2.63
2022-08-11T17:55:14.670Z,3.00
2022-08-11T17:58:01.886Z,3.03
2022-08-11T18:00:31.811Z,3.03
2022-08-11T18:03:20.245Z,3.00
2022-08-11T18:05:49.358Z,3.10
2022-08-11T18:08:38.754Z,2.83
2022-08-11T18:12:10.744Z,2.73
2022-08-11T18:14:34.804Z,2.83
2022-08-11T18:17:20.628Z,2.83
2022-08-11T18:20:06.228Z,2.77
2022-08-11T18:23:01.657Z,3.17
2022-08-11T18:25:53.296Z,2.90
2022-08-11T18:28:46.563Z,2.63
2022-08-11T18:31:35.303Z,2.97
2022-08-11T18:34:29.101Z,3.23
2022-08-11T18:37:29.470Z,2.90
2022-08-11T18:40:29.821Z,3.53
2022-08-11T18:43:26.905Z,2.90
2022-08-11T18:46:21.135Z,3.10
2022-08-11T18:49:18.029Z,2.93
2022-08-11T18:52:09.350Z,3.30
2022-08-11T18:55:00.855Z,3.20
2022-08-11T18:57:54.402Z,3.63
2022-08-11T19:00:42.840Z,3.10
2022-08-11T19:03:43.548Z,3.33
2022-08-11T19:06:40.993Z,3.07
2022-08-11T19:09:32.368Z,2.80
2022-08-11T19:12:20.464Z,3.27
2022-08-11T19:15:09.235Z,3.07
2022-08-11T19:18:00.085Z,3.47
2022-08-11T19:20:50.981Z,3.00
2022-08-11T19:23:57.002Z,3.07
2022-08-11T19:26:43.552Z,3.30
2022-08-11T19:30:07.642Z,3.30
2022-08-11T19:32:39.619Z,3.07
2022-08-11T19:35:27.122Z,3.07
2022-08-11T19:38:14.394Z,3.13
2022-08-11T19:41:01.774Z,3.40
2022-08-11T19:43:50.373Z,3.20
2022-08-11T19:46:41.412Z,3.03
2022-08-11T19:49:29.087Z,3.27
2022-08-11T19:52:17.392Z,3.30
2022-08-11T19:55:05.187Z,3.10
2022-08-11T19:57:54.926Z,3.40
2022-08-11T20:00:41.582Z,3.37
2022-08-11T20:03:32.382Z,3.20
2022-08-11T20:06:27.930Z,3.53
2022-08-11T20:09:21.684Z,3.20
2022-08-11T20:12:11.565Z,3.30
2022-08-11T20:15:02.168Z,3.40
2022-08-11T20:17:54.127Z,3.70
2022-08-11T20:20:45.311Z,3.50
2022-08-11T20:23:36.514Z,3.23
2022-08-11T20:26:31.370Z,3.67
2022-08-11T20:29:19.257Z,3.57
2022-08-11T20:32:09.701Z,3.37
2022-08-11T20:34:58.649Z,3.70
2022-08-11T20:37:50.780Z,3.60
2022-08-11T20:40:45.204Z,3.83
2022-08-11T20:44:06.126Z,3.40
2022-08-11T20:46:47.821Z,3.43
2022-08-11T20:49:58.187Z,3.03
2022-08-11T20:52:48.667Z,3.40
2022-08-11T20:55:51.403Z,3.57
2022-08-11T21:01:47.177Z,3.50
2022-08-11T21:04:38.184Z,3.57
2022-08-11T21:07:44.430Z,3.70
2022-08-11T21:10:46.729Z,3.63
2022-08-11T21:13:37.026Z,3.17
2022-08-11T21:16:27.209Z,3.57
2022-08-11T21:20:01.259Z,3.90
2022-08-11T21:22:58.996Z,3.73
2022-08-11T21:25:59.376Z,3.77
2022-08-11T21:28:47.878Z,3.80
2022-08-11T21:31:34.715Z,3.80
2022-08-11T21:34:22.845Z,3.77
2022-08-11T21:37:10.848Z,3.53
2022-08-11T21:39:58.725Z,3.93
2022-08-11T21:42:47.060Z,3.80
2022-08-11T21:45:34.740Z,3.80
2022-08-11T21:48:21.531Z,3.67
2022-08-11T21:51:07.376Z,4.10
2022-08-11T21:53:54.083Z,3.97
2022-08-11T21:56:43.634Z,3.73
2022-08-11T21:59:35.538Z,3.93
2022-08-11T22:02:22.144Z,3.50
2022-08-11T22:05:08.044Z,3.63
2022-08-11T22:07:55.872Z,4.10
2022-08-11T22:10:43.136Z,3.80
2022-08-11T22:13:32.476Z,3.63
2022-08-11T22:16:19.432Z,3.57
2022-08-11T22:19:07.288Z,4.00
2022-08-11T22:22:03.055Z,3.97
2022-08-11T22:24:52.940Z,3.90
2022-08-11T22:27:40.781Z,3.33
2022-08-11T22:30:28.989Z,3.93
2022-08-11T22:33:23.339Z,3.43
2022-08-11T22:36:14.139Z,3.60
2022-08-11T22:39:01.807Z,3.40
2022-08-11T22:41:47.908Z,3.50
2022-08-11T22:44:34.310Z,3.37
2022-08-11T22:47:22.416Z,3.23
2022-08-11T22:50:16.857Z,3.40
2022-08-11T22:53:03.371Z,3.40
2022-08-11T22:55:50.382Z,3.23
2022-08-11T22:58:40.221Z,3.40
2022-08-11T23:01:26.427Z,3.60
2022-08-11T23:04:12.495Z,3.43
2022-08-11T23:07:01.698Z,3.67
2022-08-11T23:09:47.718Z,3.53
2022-08-11T23:12:56.826Z,3.80
2022-08-11T23:15:44.028Z,3.30
2022-08-11T23:18:31.980Z,3.33
2022-08-11T23:21:18.646Z,2.93
2022-08-11T23:24:04.509Z,2.90
2022-08-11T23:26:51.362Z,3.67
2022-08-11T23:29:38.250Z,4.00
2022-08-11T23:32:25.304Z,3.47
2022-08-11T23:35:38.583Z,3.47
2022-08-11T23:38:21.248Z,3.70
2022-08-11T23:41:07.148Z,3.43
2022-08-11T23:43:53.883Z,3.63
2022-08-11T23:46:43.994Z,3.10
2022-08-11T23:49:30.085Z,3.30
2022-08-11T23:52:17.473Z,3.33
2022-08-11T23:55:04.372Z,2.90
2022-08-11T23:57:50.247Z,3.30
